sensor_id;sensor_type;location;lat;lon;timestamp;temperature;humidity
66271;DHT22;53063;39.614;8.814;2023-05-10T00:00:09;17.40;99.90
66271;DHT22;53063;39.614;8.814;2023-05-10T00:02:38;17.30;99.90
66271;DHT22;53063;39.614;8.814;2023-05-10T00:05:05;17.30;99.90
66271;DHT22;53063;39.614;8.814;2023-05-10T00:07:31;17.30;99.90
66271;DHT22;53063;39.614;8.814;2023-05-10T00:09:57;17.30;99.90
66271;DHT22;53063;39.614;8.814;2023-05-10T00:12:23;17.30;99.90
66271;DHT22;53063;39.614;8.814;2023-05-10T00:14:48;17.30;99.90
66271;DHT22;53063;39.614;8.814;2023-05-10T00:17:14;17.30;99.90
66271;DHT22;53063;39.614;8.814;2023-05-10T00:19:40;17.30;99.90
66271;DHT22;53063;39.614;8.814;2023-05-10T00:22:06;17.30;99.90
66271;DHT22;53063;39.614;8.814;2023-05-10T00:24:32;17.30;99.90
66271;DHT22;53063;39.614;8.814;2023-05-10T00:26:58;17.30;99.90
66271;DHT22;53063;39.614;8.814;2023-05-10T00:29:24;17.30;99.90
66271;DHT22;53063;39.614;8.814;2023-05-10T00:31:50;17.30;99.90
66271;DHT22;53063;39.614;8.814;2023-05-10T00:34:15;17.30;99.90
66271;DHT22;53063;39.614;8.814;2023-05-10T00:36:41;17.30;99.90
66271;DHT22;53063;39.614;8.814;2023-05-10T00:39:07;17.30;99.90
66271;DHT22;53063;39.614;8.814;2023-05-10T00:41:33;17.30;99.90
66271;DHT22;53063;39.614;8.814;2023-05-10T00:44:00;17.30;99.90
66271;DHT22;53063;39.614;8.814;2023-05-10T00:46:28;17.30;99.90
66271;DHT22;53063;39.614;8.814;2023-05-10T00:48:54;17.30;99.90
66271;DHT22;53063;39.614;8.814;2023-05-10T00:51:20;17.30;99.90
66271;DHT22;53063;39.614;8.814;2023-05-10T00:53:46;17.30;99.90
66271;DHT22;53063;39.614;8.814;2023-05-10T00:56:13;17.30;99.90
66271;DHT22;53063;39.614;8.814;2023-05-10T00:58:40;17.30;99.90
66271;DHT22;53063;39.614;8.814;2023-05-10T01:01:06;17.30;99.90
66271;DHT22;53063;39.614;8.814;2023-05-10T01:03:33;17.30;99.90
66271;DHT22;53063;39.614;8.814;2023-05-10T01:05:59;17.20;99.90
66271;DHT22;53063;39.614;8.814;2023-05-10T01:08:25;17.30;99.90
66271;DHT22;53063;39.614;8.814;2023-05-10T01:10:52;17.20;99.90
66271;DHT22;53063;39.614;8.814;2023-05-10T01:13:29;17.20;99.90
66271;DHT22;53063;39.614;8.814;2023-05-10T01:15:56;17.20;99.90
66271;DHT22;53063;39.614;8.814;2023-05-10T01:18:23;17.10;99.90
66271;DHT22;53063;39.614;8.814;2023-05-10T01:21:01;17.10;99.90
66271;DHT22;53063;39.614;8.814;2023-05-10T01:32:11;17.00;99.90
66271;DHT22;53063;39.614;8.814;2023-05-10T01:37:28;17.00;99.90
66271;DHT22;53063;39.614;8.814;2023-05-10T01:40:08;16.90;99.90
66271;DHT22;53063;39.614;8.814;2023-05-10T01:42:45;16.90;99.90
66271;DHT22;53063;39.614;8.814;2023-05-10T01:48:09;17.00;99.90
66271;DHT22;53063;39.614;8.814;2023-05-10T01:50:38;16.80;99.90
66271;DHT22;53063;39.614;8.814;2023-05-10T01:53:10;16.70;99.90
66271;DHT22;53063;39.614;8.814;2023-05-10T01:55:45;16.80;99.90
66271;DHT22;53063;39.614;8.814;2023-05-10T01:58:32;16.80;99.90
66271;DHT22;53063;39.614;8.814;2023-05-10T02:01:01;16.80;99.90
66271;DHT22;53063;39.614;8.814;2023-05-10T02:03:31;16.70;99.90
66271;DHT22;53063;39.614;8.814;2023-05-10T02:05:57;16.70;99.90
66271;DHT22;53063;39.614;8.814;2023-05-10T02:08:25;16.70;99.90
66271;DHT22;53063;39.614;8.814;2023-05-10T02:10:54;16.80;99.90
66271;DHT22;53063;39.614;8.814;2023-05-10T02:13:21;16.80;99.90
66271;DHT22;53063;39.614;8.814;2023-05-10T02:15:49;16.80;99.90
66271;DHT22;53063;39.614;8.814;2023-05-10T02:18:17;16.80;99.90
66271;DHT22;53063;39.614;8.814;2023-05-10T02:20:45;16.80;99.90
66271;DHT22;53063;39.614;8.814;2023-05-10T02:23:13;16.80;99.90
66271;DHT22;53063;39.614;8.814;2023-05-10T02:25:40;16.80;99.90
66271;DHT22;53063;39.614;8.814;2023-05-10T02:28:08;16.80;99.90
66271;DHT22;53063;39.614;8.814;2023-05-10T02:30:36;16.80;99.90
66271;DHT22;53063;39.614;8.814;2023-05-10T02:33:04;16.80;99.90
66271;DHT22;53063;39.614;8.814;2023-05-10T02:35:31;16.70;99.90
66271;DHT22;53063;39.614;8.814;2023-05-10T02:37:59;16.70;99.90
66271;DHT22;53063;39.614;8.814;2023-05-10T02:40:26;16.60;99.90
66271;DHT22;53063;39.614;8.814;2023-05-10T02:42:54;16.60;99.90
66271;DHT22;53063;39.614;8.814;2023-05-10T02:45:24;16.60;99.90
66271;DHT22;53063;39.614;8.814;2023-05-10T02:47:52;16.60;99.90
66271;DHT22;53063;39.614;8.814;2023-05-10T02:50:20;16.70;99.90
66271;DHT22;53063;39.614;8.814;2023-05-10T02:52:51;16.60;99.90
66271;DHT22;53063;39.614;8.814;2023-05-10T02:55:21;16.60;99.90
66271;DHT22;53063;39.614;8.814;2023-05-10T02:57:58;16.60;99.90
66271;DHT22;53063;39.614;8.814;2023-05-10T03:00:25;16.60;99.90
66271;DHT22;53063;39.614;8.814;2023-05-10T03:02:51;16.70;99.90
66271;DHT22;53063;39.614;8.814;2023-05-10T03:05:17;16.60;99.90
66271;DHT22;53063;39.614;8.814;2023-05-10T03:07:44;16.60;99.90
66271;DHT22;53063;39.614;8.814;2023-05-10T03:10:10;16.50;99.90
66271;DHT22;53063;39.614;8.814;2023-05-10T03:15:57;16.60;99.90
66271;DHT22;53063;39.614;8.814;2023-05-10T03:18:42;16.50;99.90
66271;DHT22;53063;39.614;8.814;2023-05-10T03:21:11;16.50;99.90
66271;DHT22;53063;39.614;8.814;2023-05-10T03:23:50;16.50;99.90
66271;DHT22;53063;39.614;8.814;2023-05-10T03:26:35;16.50;99.90
66271;DHT22;53063;39.614;8.814;2023-05-10T03:29:08;16.50;99.90
66271;DHT22;53063;39.614;8.814;2023-05-10T03:31:35;16.50;99.90
66271;DHT22;53063;39.614;8.814;2023-05-10T03:34:01;16.50;99.90
66271;DHT22;53063;39.614;8.814;2023-05-10T03:36:28;16.50;99.90
66271;DHT22;53063;39.614;8.814;2023-05-10T03:38:55;16.50;99.90
66271;DHT22;53063;39.614;8.814;2023-05-10T03:41:21;16.60;99.90
66271;DHT22;53063;39.614;8.814;2023-05-10T03:43:47;16.50;99.90
66271;DHT22;53063;39.614;8.814;2023-05-10T03:46:13;16.50;99.90
66271;DHT22;53063;39.614;8.814;2023-05-10T03:48:39;16.60;99.90
66271;DHT22;53063;39.614;8.814;2023-05-10T03:51:05;16.60;99.90
66271;DHT22;53063;39.614;8.814;2023-05-10T03:53:31;16.50;99.90
66271;DHT22;53063;39.614;8.814;2023-05-10T03:55:57;16.50;99.90
66271;DHT22;53063;39.614;8.814;2023-05-10T03:58:23;16.50;99.90
66271;DHT22;53063;39.614;8.814;2023-05-10T04:00:50;16.30;99.90
66271;DHT22;53063;39.614;8.814;2023-05-10T04:03:16;16.20;99.90
66271;DHT22;53063;39.614;8.814;2023-05-10T04:05:42;16.10;99.90
66271;DHT22;53063;39.614;8.814;2023-05-10T04:08:08;16.10;99.90
66271;DHT22;53063;39.614;8.814;2023-05-10T04:10:34;16.10;99.90
66271;DHT22;53063;39.614;8.814;2023-05-10T04:13:00;16.10;99.90
66271;DHT22;53063;39.614;8.814;2023-05-10T04:15:26;16.20;99.90
66271;DHT22;53063;39.614;8.814;2023-05-10T04:17:52;16.20;99.90
66271;DHT22;53063;39.614;8.814;2023-05-10T04:20:19;16.20;99.90
66271;DHT22;53063;39.614;8.814;2023-05-10T04:22:45;16.20;99.90
66271;DHT22;53063;39.614;8.814;2023-05-10T04:25:10;16.30;99.90
66271;DHT22;53063;39.614;8.814;2023-05-10T04:27:37;16.30;99.90
66271;DHT22;53063;39.614;8.814;2023-05-10T04:30:03;16.30;99.90
66271;DHT22;53063;39.614;8.814;2023-05-10T04:32:29;16.30;99.90
66271;DHT22;53063;39.614;8.814;2023-05-10T04:34:55;16.20;99.90
66271;DHT22;53063;39.614;8.814;2023-05-10T04:37:20;16.20;99.90
66271;DHT22;53063;39.614;8.814;2023-05-10T04:39:48;16.10;99.90
66271;DHT22;53063;39.614;8.814;2023-05-10T04:42:14;16.10;99.90
66271;DHT22;53063;39.614;8.814;2023-05-10T04:44:40;16.10;99.90
66271;DHT22;53063;39.614;8.814;2023-05-10T04:47:06;16.00;99.90
66271;DHT22;53063;39.614;8.814;2023-05-10T04:49:32;16.00;99.90
66271;DHT22;53063;39.614;8.814;2023-05-10T04:51:58;16.00;99.90
66271;DHT22;53063;39.614;8.814;2023-05-10T04:54:24;16.00;99.90
66271;DHT22;53063;39.614;8.814;2023-05-10T04:56:50;16.00;99.90
66271;DHT22;53063;39.614;8.814;2023-05-10T04:59:16;16.00;99.90
66271;DHT22;53063;39.614;8.814;2023-05-10T05:01:42;16.00;99.90
66271;DHT22;53063;39.614;8.814;2023-05-10T05:04:08;16.00;99.90
66271;DHT22;53063;39.614;8.814;2023-05-10T05:06:34;16.00;99.90
66271;DHT22;53063;39.614;8.814;2023-05-10T05:09:00;16.10;99.90
66271;DHT22;53063;39.614;8.814;2023-05-10T05:11:26;16.10;99.90
66271;DHT22;53063;39.614;8.814;2023-05-10T05:13:52;16.10;99.90
66271;DHT22;53063;39.614;8.814;2023-05-10T05:16:18;16.20;99.90
66271;DHT22;53063;39.614;8.814;2023-05-10T05:18:44;16.20;99.90
66271;DHT22;53063;39.614;8.814;2023-05-10T05:21:16;16.30;99.90
66271;DHT22;53063;39.614;8.814;2023-05-10T05:23:43;16.30;99.90
66271;DHT22;53063;39.614;8.814;2023-05-10T05:26:09;16.20;99.90
66271;DHT22;53063;39.614;8.814;2023-05-10T05:28:35;16.30;99.90
66271;DHT22;53063;39.614;8.814;2023-05-10T05:31:06;16.30;99.90
66271;DHT22;53063;39.614;8.814;2023-05-10T05:33:33;16.40;99.90
66271;DHT22;53063;39.614;8.814;2023-05-10T05:36:03;16.40;99.90
66271;DHT22;53063;39.614;8.814;2023-05-10T05:38:29;16.50;99.90
66271;DHT22;53063;39.614;8.814;2023-05-10T05:40:56;16.50;99.90
66271;DHT22;53063;39.614;8.814;2023-05-10T05:43:22;16.50;99.90
66271;DHT22;53063;39.614;8.814;2023-05-10T05:45:49;16.50;99.90
66271;DHT22;53063;39.614;8.814;2023-05-10T05:48:15;16.50;99.90
66271;DHT22;53063;39.614;8.814;2023-05-10T05:50:41;16.50;99.90
66271;DHT22;53063;39.614;8.814;2023-05-10T05:53:06;16.60;99.90
66271;DHT22;53063;39.614;8.814;2023-05-10T05:55:33;16.70;99.90
66271;DHT22;53063;39.614;8.814;2023-05-10T05:57:59;16.90;99.90
66271;DHT22;53063;39.614;8.814;2023-05-10T06:00:25;17.20;99.90
66271;DHT22;53063;39.614;8.814;2023-05-10T06:02:51;17.70;99.90
66271;DHT22;53063;39.614;8.814;2023-05-10T06:05:17;18.30;99.90
66271;DHT22;53063;39.614;8.814;2023-05-10T06:07:43;18.70;99.90
66271;DHT22;53063;39.614;8.814;2023-05-10T06:10:10;18.50;99.90
66271;DHT22;53063;39.614;8.814;2023-05-10T06:12:36;18.50;99.90
66271;DHT22;53063;39.614;8.814;2023-05-10T06:15:03;18.20;99.90
66271;DHT22;53063;39.614;8.814;2023-05-10T06:17:29;17.90;99.90
66271;DHT22;53063;39.614;8.814;2023-05-10T06:19:55;17.80;99.90
66271;DHT22;53063;39.614;8.814;2023-05-10T06:22:21;17.60;99.90
66271;DHT22;53063;39.614;8.814;2023-05-10T06:24:48;17.60;99.90
66271;DHT22;53063;39.614;8.814;2023-05-10T06:27:14;17.50;99.90
66271;DHT22;53063;39.614;8.814;2023-05-10T06:29:40;17.50;99.90
66271;DHT22;53063;39.614;8.814;2023-05-10T06:32:06;17.40;99.90
66271;DHT22;53063;39.614;8.814;2023-05-10T06:34:32;17.50;99.90
66271;DHT22;53063;39.614;8.814;2023-05-10T06:36:58;17.70;99.90
66271;DHT22;53063;39.614;8.814;2023-05-10T06:39:24;17.60;99.90
66271;DHT22;53063;39.614;8.814;2023-05-10T06:41:50;17.60;99.90
66271;DHT22;53063;39.614;8.814;2023-05-10T06:44:18;17.80;99.90
66271;DHT22;53063;39.614;8.814;2023-05-10T06:46:44;17.90;99.90
66271;DHT22;53063;39.614;8.814;2023-05-10T06:49:10;19.00;99.90
66271;DHT22;53063;39.614;8.814;2023-05-10T06:51:36;21.70;99.90
66271;DHT22;53063;39.614;8.814;2023-05-10T06:54:02;20.40;99.90
66271;DHT22;53063;39.614;8.814;2023-05-10T06:56:27;19.70;99.90
66271;DHT22;53063;39.614;8.814;2023-05-10T06:58:53;20.30;99.90
66271;DHT22;53063;39.614;8.814;2023-05-10T07:01:19;20.60;99.90
66271;DHT22;53063;39.614;8.814;2023-05-10T07:03:45;20.60;99.90
66271;DHT22;53063;39.614;8.814;2023-05-10T07:06:11;20.00;99.90
66271;DHT22;53063;39.614;8.814;2023-05-10T07:08:37;19.40;99.90
66271;DHT22;53063;39.614;8.814;2023-05-10T07:11:04;19.20;99.90
66271;DHT22;53063;39.614;8.814;2023-05-10T07:13:32;18.90;99.90
66271;DHT22;53063;39.614;8.814;2023-05-10T07:15:59;18.40;99.90
66271;DHT22;53063;39.614;8.814;2023-05-10T07:18:26;18.60;99.90
66271;DHT22;53063;39.614;8.814;2023-05-10T07:20:52;18.50;99.90
66271;DHT22;53063;39.614;8.814;2023-05-10T07:23:18;19.60;99.90
66271;DHT22;53063;39.614;8.814;2023-05-10T07:25:48;20.50;99.90
66271;DHT22;53063;39.614;8.814;2023-05-10T07:28:15;21.00;99.90
66271;DHT22;53063;39.614;8.814;2023-05-10T07:30:42;20.80;99.90
66271;DHT22;53063;39.614;8.814;2023-05-10T07:33:10;21.10;99.90
66271;DHT22;53063;39.614;8.814;2023-05-10T07:35:37;21.20;99.90
66271;DHT22;53063;39.614;8.814;2023-05-10T07:38:03;20.80;99.90
66271;DHT22;53063;39.614;8.814;2023-05-10T07:40:29;20.40;99.90
66271;DHT22;53063;39.614;8.814;2023-05-10T07:42:55;20.50;99.90
66271;DHT22;53063;39.614;8.814;2023-05-10T07:45:22;20.20;99.90
66271;DHT22;53063;39.614;8.814;2023-05-10T07:47:48;19.70;99.90
66271;DHT22;53063;39.614;8.814;2023-05-10T07:50:14;19.30;99.90
66271;DHT22;53063;39.614;8.814;2023-05-10T07:52:41;20.10;99.90
66271;DHT22;53063;39.614;8.814;2023-05-10T07:55:08;20.50;99.90
66271;DHT22;53063;39.614;8.814;2023-05-10T07:57:34;20.30;99.90
66271;DHT22;53063;39.614;8.814;2023-05-10T08:00:00;21.00;99.90
66271;DHT22;53063;39.614;8.814;2023-05-10T08:02:26;20.70;99.90
66271;DHT22;53063;39.614;8.814;2023-05-10T08:04:52;20.60;99.90
66271;DHT22;53063;39.614;8.814;2023-05-10T08:07:18;21.20;99.90
66271;DHT22;53063;39.614;8.814;2023-05-10T08:09:44;21.70;98.00
66271;DHT22;53063;39.614;8.814;2023-05-10T08:12:10;21.80;95.60
66271;DHT22;53063;39.614;8.814;2023-05-10T08:14:36;22.20;93.80
66271;DHT22;53063;39.614;8.814;2023-05-10T08:17:03;21.70;93.10
66271;DHT22;53063;39.614;8.814;2023-05-10T08:19:29;22.10;91.00
66271;DHT22;53063;39.614;8.814;2023-05-10T08:21:55;22.50;90.40
66271;DHT22;53063;39.614;8.814;2023-05-10T08:24:21;22.90;88.30
66271;DHT22;53063;39.614;8.814;2023-05-10T08:26:48;22.70;88.60
66271;DHT22;53063;39.614;8.814;2023-05-10T08:29:14;21.90;92.80
66271;DHT22;53063;39.614;8.814;2023-05-10T08:31:40;21.20;94.50
66271;DHT22;53063;39.614;8.814;2023-05-10T08:34:06;21.60;95.30
66271;DHT22;53063;39.614;8.814;2023-05-10T08:36:32;22.70;91.20
66271;DHT22;53063;39.614;8.814;2023-05-10T08:38:58;23.50;87.30
66271;DHT22;53063;39.614;8.814;2023-05-10T08:41:25;23.10;85.10
66271;DHT22;53063;39.614;8.814;2023-05-10T08:43:54;22.30;88.50
66271;DHT22;53063;39.614;8.814;2023-05-10T08:46:21;22.20;91.40
66271;DHT22;53063;39.614;8.814;2023-05-10T08:48:49;22.80;87.70
66271;DHT22;53063;39.614;8.814;2023-05-10T08:51:22;22.80;88.20
66271;DHT22;53063;39.614;8.814;2023-05-10T08:53:49;22.60;88.60
66271;DHT22;53063;39.614;8.814;2023-05-10T08:56:15;22.60;87.80
66271;DHT22;53063;39.614;8.814;2023-05-10T08:58:43;22.20;88.20
66271;DHT22;53063;39.614;8.814;2023-05-10T09:01:09;22.90;86.90
66271;DHT22;53063;39.614;8.814;2023-05-10T09:03:38;22.20;88.10
66271;DHT22;53063;39.614;8.814;2023-05-10T09:06:04;22.50;86.70
66271;DHT22;53063;39.614;8.814;2023-05-10T09:08:30;22.50;87.20
66271;DHT22;53063;39.614;8.814;2023-05-10T09:10:57;22.00;86.30
66271;DHT22;53063;39.614;8.814;2023-05-10T09:13:24;23.00;86.20
66271;DHT22;53063;39.614;8.814;2023-05-10T09:15:51;22.70;82.90
66271;DHT22;53063;39.614;8.814;2023-05-10T09:18:17;22.70;85.30
66271;DHT22;53063;39.614;8.814;2023-05-10T09:20:43;23.50;81.50
66271;DHT22;53063;39.614;8.814;2023-05-10T09:23:09;23.60;78.00
66271;DHT22;53063;39.614;8.814;2023-05-10T09:25:35;23.80;78.10
66271;DHT22;53063;39.614;8.814;2023-05-10T09:28:01;23.90;75.30
66271;DHT22;53063;39.614;8.814;2023-05-10T09:30:31;23.10;75.50
66271;DHT22;53063;39.614;8.814;2023-05-10T09:32:58;23.20;78.10
66271;DHT22;53063;39.614;8.814;2023-05-10T09:35:27;23.70;75.20
66271;DHT22;53063;39.614;8.814;2023-05-10T09:37:56;23.00;75.90
66271;DHT22;53063;39.614;8.814;2023-05-10T09:40:24;23.20;75.60
66271;DHT22;53063;39.614;8.814;2023-05-10T09:45:25;23.10;75.30
66271;DHT22;53063;39.614;8.814;2023-05-10T09:47:51;24.10;73.10
66271;DHT22;53063;39.614;8.814;2023-05-10T09:50:18;24.20;71.10
66271;DHT22;53063;39.614;8.814;2023-05-10T09:52:49;24.50;72.20
66271;DHT22;53063;39.614;8.814;2023-05-10T09:55:16;25.00;68.90
66271;DHT22;53063;39.614;8.814;2023-05-10T09:57:42;25.00;67.20
66271;DHT22;53063;39.614;8.814;2023-05-10T10:00:09;24.20;70.20
66271;DHT22;53063;39.614;8.814;2023-05-10T10:02:41;24.50;68.50
66271;DHT22;53063;39.614;8.814;2023-05-10T10:05:07;24.70;69.00
66271;DHT22;53063;39.614;8.814;2023-05-10T10:07:34;24.10;71.60
66271;DHT22;53063;39.614;8.814;2023-05-10T10:10:00;24.20;69.40
66271;DHT22;53063;39.614;8.814;2023-05-10T10:12:26;24.60;67.10
66271;DHT22;53063;39.614;8.814;2023-05-10T10:14:53;25.00;66.50
66271;DHT22;53063;39.614;8.814;2023-05-10T10:17:21;25.20;64.50
66271;DHT22;53063;39.614;8.814;2023-05-10T10:19:48;24.90;63.70
66271;DHT22;53063;39.614;8.814;2023-05-10T10:22:14;24.90;62.80
66271;DHT22;53063;39.614;8.814;2023-05-10T10:24:40;25.10;62.80
66271;DHT22;53063;39.614;8.814;2023-05-10T10:27:40;25.30;62.20
66271;DHT22;53063;39.614;8.814;2023-05-10T10:35:53;25.40;58.50
66271;DHT22;53063;39.614;8.814;2023-05-10T10:38:19;25.50;59.30
66271;DHT22;53063;39.614;8.814;2023-05-10T10:40:46;24.80;59.20
66271;DHT22;53063;39.614;8.814;2023-05-10T10:43:25;25.00;60.10
66271;DHT22;53063;39.614;8.814;2023-05-10T10:46:14;25.40;62.10
66271;DHT22;53063;39.614;8.814;2023-05-10T10:48:41;25.30;61.30
66271;DHT22;53063;39.614;8.814;2023-05-10T10:51:13;25.40;60.60
66271;DHT22;53063;39.614;8.814;2023-05-10T10:53:40;24.90;61.30
66271;DHT22;53063;39.614;8.814;2023-05-10T10:56:09;25.00;62.90
66271;DHT22;53063;39.614;8.814;2023-05-10T10:58:36;25.20;60.70
66271;DHT22;53063;39.614;8.814;2023-05-10T11:01:18;24.50;63.70
66271;DHT22;53063;39.614;8.814;2023-05-10T11:06:32;25.40;61.70
66271;DHT22;53063;39.614;8.814;2023-05-10T11:09:08;24.90;62.90
66271;DHT22;53063;39.614;8.814;2023-05-10T11:11:35;25.10;61.50
66271;DHT22;53063;39.614;8.814;2023-05-10T11:14:07;25.40;61.70
66271;DHT22;53063;39.614;8.814;2023-05-10T11:16:44;25.50;61.20
66271;DHT22;53063;39.614;8.814;2023-05-10T11:19:14;24.20;63.80
66271;DHT22;53063;39.614;8.814;2023-05-10T11:24:37;24.20;62.40
66271;DHT22;53063;39.614;8.814;2023-05-10T11:27:03;23.70;64.70
66271;DHT22;53063;39.614;8.814;2023-05-10T11:29:29;24.10;63.40
66271;DHT22;53063;39.614;8.814;2023-05-10T11:31:59;24.30;63.30
66271;DHT22;53063;39.614;8.814;2023-05-10T11:34:29;24.20;63.30
66271;DHT22;53063;39.614;8.814;2023-05-10T11:36:56;25.00;62.10
66271;DHT22;53063;39.614;8.814;2023-05-10T11:39:30;24.90;62.60
66271;DHT22;53063;39.614;8.814;2023-05-10T11:41:57;25.60;59.40
66271;DHT22;53063;39.614;8.814;2023-05-10T11:44:28;25.30;59.30
66271;DHT22;53063;39.614;8.814;2023-05-10T11:46:54;25.60;59.80
66271;DHT22;53063;39.614;8.814;2023-05-10T11:49:24;25.20;59.20
66271;DHT22;53063;39.614;8.814;2023-05-10T11:51:51;25.30;59.50
66271;DHT22;53063;39.614;8.814;2023-05-10T11:54:17;24.60;59.10
66271;DHT22;53063;39.614;8.814;2023-05-10T11:56:43;24.60;60.60
66271;DHT22;53063;39.614;8.814;2023-05-10T11:59:10;24.80;59.90
66271;DHT22;53063;39.614;8.814;2023-05-10T12:01:36;25.00;59.60
66271;DHT22;53063;39.614;8.814;2023-05-10T12:04:02;24.90;59.70
66271;DHT22;53063;39.614;8.814;2023-05-10T12:06:30;24.70;59.40
66271;DHT22;53063;39.614;8.814;2023-05-10T12:08:57;24.80;59.50
66271;DHT22;53063;39.614;8.814;2023-05-10T12:11:28;24.40;59.90
66271;DHT22;53063;39.614;8.814;2023-05-10T12:13:55;23.50;62.00
66271;DHT22;53063;39.614;8.814;2023-05-10T12:16:28;23.30;63.10
66271;DHT22;53063;39.614;8.814;2023-05-10T12:18:57;24.40;61.00
66271;DHT22;53063;39.614;8.814;2023-05-10T12:21:24;24.80;60.30
66271;DHT22;53063;39.614;8.814;2023-05-10T12:23:52;24.30;59.60
66271;DHT22;53063;39.614;8.814;2023-05-10T12:26:18;24.30;59.90
66271;DHT22;53063;39.614;8.814;2023-05-10T12:28:46;24.00;61.30
66271;DHT22;53063;39.614;8.814;2023-05-10T12:31:12;24.30;60.20
66271;DHT22;53063;39.614;8.814;2023-05-10T12:33:43;24.40;60.10
66271;DHT22;53063;39.614;8.814;2023-05-10T12:36:10;24.00;60.60
66271;DHT22;53063;39.614;8.814;2023-05-10T12:38:38;24.70;58.80
66271;DHT22;53063;39.614;8.814;2023-05-10T12:41:06;24.70;58.00
66271;DHT22;53063;39.614;8.814;2023-05-10T12:43:33;24.60;58.70
66271;DHT22;53063;39.614;8.814;2023-05-10T12:46:13;24.00;60.90
66271;DHT22;53063;39.614;8.814;2023-05-10T12:48:41;23.80;61.00
66271;DHT22;53063;39.614;8.814;2023-05-10T12:51:08;23.70;61.90
66271;DHT22;53063;39.614;8.814;2023-05-10T12:53:35;23.40;60.40
66271;DHT22;53063;39.614;8.814;2023-05-10T12:56:02;23.00;61.60
66271;DHT22;53063;39.614;8.814;2023-05-10T12:58:28;23.70;61.70
66271;DHT22;53063;39.614;8.814;2023-05-10T13:00:54;24.00;60.90
66271;DHT22;53063;39.614;8.814;2023-05-10T13:03:22;24.30;59.30
66271;DHT22;53063;39.614;8.814;2023-05-10T13:05:48;24.30;58.90
66271;DHT22;53063;39.614;8.814;2023-05-10T13:08:14;24.30;57.60
66271;DHT22;53063;39.614;8.814;2023-05-10T13:10:40;24.10;57.90
66271;DHT22;53063;39.614;8.814;2023-05-10T13:13:06;23.90;58.40
66271;DHT22;53063;39.614;8.814;2023-05-10T13:15:33;23.80;59.20
66271;DHT22;53063;39.614;8.814;2023-05-10T13:17:59;24.00;59.10
66271;DHT22;53063;39.614;8.814;2023-05-10T13:20:25;23.60;58.00
66271;DHT22;53063;39.614;8.814;2023-05-10T13:22:52;23.40;58.80
66271;DHT22;53063;39.614;8.814;2023-05-10T13:25:18;23.30;58.70
66271;DHT22;53063;39.614;8.814;2023-05-10T13:27:44;22.90;59.10
66271;DHT22;53063;39.614;8.814;2023-05-10T13:30:10;23.00;59.50
66271;DHT22;53063;39.614;8.814;2023-05-10T13:32:37;23.20;60.00
66271;DHT22;53063;39.614;8.814;2023-05-10T13:35:03;23.60;59.40
66271;DHT22;53063;39.614;8.814;2023-05-10T13:37:32;23.30;59.10
66271;DHT22;53063;39.614;8.814;2023-05-10T13:40:02;23.10;59.00
66271;DHT22;53063;39.614;8.814;2023-05-10T13:42:28;23.00;60.60
66271;DHT22;53063;39.614;8.814;2023-05-10T13:44:54;23.10;59.30
66271;DHT22;53063;39.614;8.814;2023-05-10T13:47:20;22.90;60.00
66271;DHT22;53063;39.614;8.814;2023-05-10T13:49:47;22.20;60.70
66271;DHT22;53063;39.614;8.814;2023-05-10T13:52:13;22.40;61.60
66271;DHT22;53063;39.614;8.814;2023-05-10T13:54:39;22.60;59.00
66271;DHT22;53063;39.614;8.814;2023-05-10T13:57:05;22.50;60.40
66271;DHT22;53063;39.614;8.814;2023-05-10T13:59:32;22.70;59.90
66271;DHT22;53063;39.614;8.814;2023-05-10T14:01:59;22.50;60.10
66271;DHT22;53063;39.614;8.814;2023-05-10T14:04:25;22.30;60.20
66271;DHT22;53063;39.614;8.814;2023-05-10T14:06:51;22.20;60.10
66271;DHT22;53063;39.614;8.814;2023-05-10T14:09:18;22.30;59.80
66271;DHT22;53063;39.614;8.814;2023-05-10T14:11:44;22.00;60.60
66271;DHT22;53063;39.614;8.814;2023-05-10T14:14:11;21.60;60.00
66271;DHT22;53063;39.614;8.814;2023-05-10T14:16:41;21.60;61.60
66271;DHT22;53063;39.614;8.814;2023-05-10T14:19:07;21.70;61.40
66271;DHT22;53063;39.614;8.814;2023-05-10T14:21:33;21.80;60.40
66271;DHT22;53063;39.614;8.814;2023-05-10T14:24:00;21.70;60.70
66271;DHT22;53063;39.614;8.814;2023-05-10T14:26:26;21.30;61.90
66271;DHT22;53063;39.614;8.814;2023-05-10T14:28:53;21.30;61.70
66271;DHT22;53063;39.614;8.814;2023-05-10T14:31:19;21.40;61.30
66271;DHT22;53063;39.614;8.814;2023-05-10T14:33:50;21.30;62.60
66271;DHT22;53063;39.614;8.814;2023-05-10T14:36:15;21.30;63.40
66271;DHT22;53063;39.614;8.814;2023-05-10T14:38:41;21.60;63.00
66271;DHT22;53063;39.614;8.814;2023-05-10T14:41:07;21.30;61.70
66271;DHT22;53063;39.614;8.814;2023-05-10T14:43:33;21.40;63.00
66271;DHT22;53063;39.614;8.814;2023-05-10T14:45:59;21.40;62.90
66271;DHT22;53063;39.614;8.814;2023-05-10T14:48:25;21.30;62.30
66271;DHT22;53063;39.614;8.814;2023-05-10T14:50:51;21.40;62.40
66271;DHT22;53063;39.614;8.814;2023-05-10T14:53:18;21.20;63.40
66271;DHT22;53063;39.614;8.814;2023-05-10T14:55:44;20.80;64.10
66271;DHT22;53063;39.614;8.814;2023-05-10T14:58:09;20.60;62.30
66271;DHT22;53063;39.614;8.814;2023-05-10T15:00:35;20.40;61.90
66271;DHT22;53063;39.614;8.814;2023-05-10T15:03:01;20.90;62.90
66271;DHT22;53063;39.614;8.814;2023-05-10T15:05:27;20.90;61.90
66271;DHT22;53063;39.614;8.814;2023-05-10T15:07:53;20.90;62.50
66271;DHT22;53063;39.614;8.814;2023-05-10T15:10:19;20.80;61.90
66271;DHT22;53063;39.614;8.814;2023-05-10T15:12:45;20.80;61.20
66271;DHT22;53063;39.614;8.814;2023-05-10T15:15:11;20.80;62.40
66271;DHT22;53063;39.614;8.814;2023-05-10T15:17:37;20.90;62.70
66271;DHT22;53063;39.614;8.814;2023-05-10T15:20:03;20.80;63.30
66271;DHT22;53063;39.614;8.814;2023-05-10T15:22:29;21.10;63.00
66271;DHT22;53063;39.614;8.814;2023-05-10T15:25:00;20.70;62.90
66271;DHT22;53063;39.614;8.814;2023-05-10T15:27:26;20.60;63.20
66271;DHT22;53063;39.614;8.814;2023-05-10T15:29:52;20.60;64.60
66271;DHT22;53063;39.614;8.814;2023-05-10T15:32:18;20.70;63.80
66271;DHT22;53063;39.614;8.814;2023-05-10T15:34:44;20.40;63.80
66271;DHT22;53063;39.614;8.814;2023-05-10T15:37:10;20.20;65.80
66271;DHT22;53063;39.614;8.814;2023-05-10T15:39:36;20.30;65.70
66271;DHT22;53063;39.614;8.814;2023-05-10T15:42:02;20.10;65.10
66271;DHT22;53063;39.614;8.814;2023-05-10T15:44:28;20.00;65.10
66271;DHT22;53063;39.614;8.814;2023-05-10T15:46:54;19.80;65.10
66271;DHT22;53063;39.614;8.814;2023-05-10T15:49:21;19.80;66.00
66271;DHT22;53063;39.614;8.814;2023-05-10T15:51:47;19.70;65.60
66271;DHT22;53063;39.614;8.814;2023-05-10T15:54:13;19.80;65.70
66271;DHT22;53063;39.614;8.814;2023-05-10T15:56:39;19.90;64.90
66271;DHT22;53063;39.614;8.814;2023-05-10T15:59:06;19.80;65.70
66271;DHT22;53063;39.614;8.814;2023-05-10T16:01:33;19.80;66.60